createdAt,value
2018-07-16T00:00:18.772Z,19.38
2018-07-16T00:01:18.756Z,19.31
2018-07-16T00:02:18.739Z,19.32
2018-07-16T00:03:18.725Z,19.22
2018-07-16T00:04:18.711Z,19.32
2018-07-16T00:05:18.694Z,19.30
2018-07-16T00:06:18.676Z,19.27
2018-07-16T00:07:18.660Z,19.26
2018-07-16T00:08:18.648Z,19.20
2018-07-16T00:09:18.633Z,19.20
2018-07-16T00:10:18.614Z,19.20
2018-07-16T00:11:18.598Z,19.23
2018-07-16T00:12:18.578Z,19.07
2018-07-16T00:13:18.566Z,19.12
2018-07-16T00:14:18.579Z,19.07
2018-07-16T00:15:18.537Z,19.05
2018-07-16T00:16:18.515Z,19.17
2018-07-16T00:17:18.520Z,19.09
2018-07-16T00:18:18.483Z,19.15
2018-07-16T00:19:18.473Z,18.98
2018-07-16T00:20:18.454Z,18.91
2018-07-16T00:21:18.438Z,18.91
2018-07-16T00:22:18.423Z,18.96
2018-07-16T00:23:18.411Z,18.93
2018-07-16T00:24:18.393Z,18.97
2018-07-16T00:25:18.372Z,18.96
2018-07-16T00:26:18.364Z,18.91
2018-07-16T00:27:18.361Z,18.85
2018-07-16T00:28:18.332Z,18.86
2018-07-16T00:29:18.305Z,18.88
2018-07-16T00:30:18.292Z,18.89
2018-07-16T00:31:18.281Z,18.75
2018-07-16T00:32:18.269Z,18.79
2018-07-16T00:33:18.290Z,18.76
2018-07-16T00:34:18.232Z,18.82
2018-07-16T00:35:18.216Z,18.85
2018-07-16T00:36:18.197Z,18.79
2018-07-16T00:37:18.185Z,18.79
2018-07-16T00:38:18.169Z,18.67
2018-07-16T00:39:18.156Z,18.78
2018-07-16T00:40:18.135Z,18.74
2018-07-16T00:41:18.116Z,18.78
2018-07-16T00:42:18.102Z,18.75
2018-07-16T00:43:18.088Z,18.71
2018-07-16T00:44:18.105Z,18.76
2018-07-16T00:45:18.052Z,18.70
2018-07-16T00:46:18.043Z,18.61
2018-07-16T00:47:18.025Z,18.67
2018-07-16T00:48:18.005Z,18.64
2018-07-16T00:49:17.991Z,18.67
2018-07-16T00:50:18.008Z,18.64
2018-07-16T00:51:17.960Z,18.61
2018-07-16T00:52:17.964Z,18.57
2018-07-16T00:53:17.932Z,18.56
2018-07-16T00:54:17.911Z,18.57
2018-07-16T00:55:17.945Z,18.57
2018-07-16T00:56:17.907Z,18.61
2018-07-16T00:57:17.860Z,18.54
2018-07-16T00:58:17.849Z,18.49
2018-07-16T00:59:17.837Z,18.54
2018-07-16T01:00:17.819Z,18.54
2018-07-16T01:01:17.801Z,18.49
2018-07-16T01:02:17.782Z,18.51
2018-07-16T01:03:17.766Z,18.49
2018-07-16T01:04:17.753Z,18.43
2018-07-16T01:05:17.731Z,18.43
2018-07-16T01:06:17.713Z,18.45
2018-07-16T01:07:17.695Z,18.41
2018-07-16T01:08:17.688Z,18.38
2018-07-16T01:09:17.672Z,18.43
2018-07-16T01:10:17.648Z,18.45
2018-07-16T01:11:17.638Z,18.43
2018-07-16T01:12:17.627Z,18.38
2018-07-16T01:13:17.601Z,18.36
2018-07-16T01:14:17.587Z,18.41
2018-07-16T01:15:17.565Z,18.46
2018-07-16T01:16:17.555Z,18.43
2018-07-16T01:17:17.552Z,18.33
2018-07-16T01:18:17.527Z,18.41
2018-07-16T01:19:17.505Z,18.39
2018-07-16T01:20:17.483Z,18.41
2018-07-16T01:21:17.468Z,18.36
2018-07-16T01:22:17.455Z,18.41
2018-07-16T01:23:17.434Z,18.38
2018-07-16T01:24:17.435Z,18.39
2018-07-16T01:25:17.438Z,18.30
2018-07-16T01:26:17.389Z,18.27
2018-07-16T01:27:17.371Z,18.31
2018-07-16T01:28:17.359Z,18.33
2018-07-16T01:29:17.345Z,18.24
2018-07-16T01:30:17.323Z,18.27
2018-07-16T01:31:17.307Z,18.18
2018-07-16T01:32:17.283Z,18.24
2018-07-16T01:33:17.270Z,18.20
2018-07-16T01:34:17.264Z,18.20
2018-07-16T01:35:17.242Z,18.12
2018-07-16T01:36:17.221Z,18.08
2018-07-16T01:37:17.209Z,18.01
2018-07-16T01:38:17.197Z,18.02
2018-07-16T01:39:17.177Z,18.03
2018-07-16T01:40:17.153Z,18.02
2018-07-16T01:41:17.144Z,17.90
2018-07-16T01:42:17.125Z,17.99
2018-07-16T01:43:17.112Z,17.91
2018-07-16T01:44:17.087Z,17.83
2018-07-16T01:45:17.071Z,17.86
2018-07-16T01:46:17.059Z,17.73
2018-07-16T01:47:17.039Z,17.84
2018-07-16T01:48:17.027Z,17.76
2018-07-16T01:49:17.007Z,17.65
2018-07-16T01:50:16.991Z,17.66
2018-07-16T01:51:16.977Z,17.72
2018-07-16T01:52:16.964Z,17.73
2018-07-16T01:53:16.939Z,17.73
2018-07-16T01:54:16.924Z,17.66
2018-07-16T01:55:16.928Z,17.72
2018-07-16T01:56:16.901Z,17.54
2018-07-16T01:57:16.882Z,17.54
2018-07-16T01:58:16.858Z,17.56
2018-07-16T01:59:16.842Z,17.52
2018-07-16T02:00:16.893Z,17.53
2018-07-16T02:01:16.811Z,17.53
2018-07-16T02:02:16.802Z,17.53
2018-07-16T02:03:16.772Z,17.54
2018-07-16T02:04:16.762Z,17.54
2018-07-16T02:05:16.785Z,17.52
2018-07-16T02:06:16.745Z,17.54
2018-07-16T02:07:16.718Z,17.52
2018-07-16T02:08:16.699Z,17.52
2018-07-16T02:09:16.681Z,17.53
2018-07-16T02:10:16.688Z,17.56
2018-07-16T02:11:16.638Z,17.54
2018-07-16T02:12:16.619Z,17.52
2018-07-16T02:13:16.623Z,17.62
2018-07-16T02:14:16.592Z,17.59
2018-07-16T02:15:16.580Z,17.50
2018-07-16T02:16:16.551Z,17.53
2018-07-16T02:17:16.553Z,17.45
2018-07-16T02:18:16.541Z,17.53
2018-07-16T02:19:16.538Z,17.56
2018-07-16T02:20:16.503Z,17.45
2018-07-16T02:21:16.469Z,17.52
2018-07-16T02:22:16.454Z,17.47
2018-07-16T02:23:16.463Z,17.41
2018-07-16T02:24:16.445Z,17.39
2018-07-16T02:25:16.402Z,17.37
2018-07-16T02:26:16.391Z,17.45
2018-07-16T02:27:16.373Z,17.32
2018-07-16T02:28:16.352Z,17.38
2018-07-16T02:29:16.338Z,17.43
2018-07-16T02:30:16.337Z,17.39
2018-07-16T02:31:16.306Z,17.37
2018-07-16T02:32:16.297Z,17.30
2018-07-16T02:33:16.272Z,17.41
2018-07-16T02:34:16.281Z,17.34
2018-07-16T02:35:16.267Z,17.35
2018-07-16T02:36:16.237Z,17.32
2018-07-16T02:37:16.203Z,17.39
2018-07-16T02:38:16.187Z,17.37
2018-07-16T02:39:16.174Z,17.30
2018-07-16T02:40:16.161Z,17.24
2018-07-16T02:41:16.143Z,17.30
2018-07-16T02:42:16.118Z,17.35
2018-07-16T02:43:16.101Z,17.20
2018-07-16T02:44:16.081Z,17.25
2018-07-16T02:45:16.064Z,17.20
2018-07-16T02:46:16.050Z,17.20
2018-07-16T02:47:16.037Z,17.25
2018-07-16T02:48:16.050Z,17.22
2018-07-16T02:49:16.002Z,17.28
2018-07-16T02:50:15.978Z,17.22
2018-07-16T02:51:15.968Z,17.20
2018-07-16T02:52:15.955Z,17.10
2018-07-16T02:53:15.937Z,17.30
2018-07-16T02:54:15.919Z,17.12
2018-07-16T02:55:15.899Z,17.13
2018-07-16T02:56:15.928Z,17.16
2018-07-16T02:57:15.866Z,17.16
2018-07-16T02:58:15.847Z,17.09
2018-07-16T02:59:15.832Z,17.13
2018-07-16T03:00:15.813Z,17.16
2018-07-16T03:01:15.794Z,17.13
2018-07-16T03:02:15.783Z,17.13
2018-07-16T03:03:15.769Z,17.20
2018-07-16T03:04:15.761Z,17.13
2018-07-16T03:05:15.732Z,17.01
2018-07-16T03:06:15.708Z,17.17
2018-07-16T03:07:15.701Z,17.07
2018-07-16T03:08:15.676Z,17.22
2018-07-16T03:09:15.658Z,17.13
2018-07-16T03:10:15.676Z,17.14
2018-07-16T03:11:15.622Z,17.22
2018-07-16T03:12:15.630Z,17.16
2018-07-16T03:13:15.587Z,17.17
2018-07-16T03:14:15.574Z,17.19
2018-07-16T03:15:15.557Z,17.14
2018-07-16T03:16:15.536Z,17.09
2018-07-16T03:17:15.553Z,17.16
2018-07-16T03:18:15.520Z,17.12
2018-07-16T03:19:15.484Z,17.16
2018-07-16T03:20:15.467Z,17.10
2018-07-16T03:21:15.486Z,17.09
2018-07-16T03:22:15.433Z,17.09
2018-07-16T03:23:15.416Z,17.10
2018-07-16T03:24:15.404Z,16.98
2018-07-16T03:25:15.387Z,17.02
2018-07-16T03:26:15.366Z,17.02
2018-07-16T03:27:15.373Z,16.97
2018-07-16T03:28:15.325Z,16.99
2018-07-16T03:29:15.325Z,17.04
2018-07-16T03:30:15.295Z,16.95
2018-07-16T03:31:15.307Z,17.06
2018-07-16T03:32:15.261Z,16.97
2018-07-16T03:33:15.278Z,16.95
2018-07-16T03:34:15.240Z,16.98
2018-07-16T03:35:15.237Z,16.98
2018-07-16T03:36:15.196Z,16.97
2018-07-16T03:37:15.179Z,16.94
2018-07-16T03:38:15.163Z,16.98
2018-07-16T03:39:15.144Z,16.97
2018-07-16T03:40:15.126Z,16.95
2018-07-16T03:41:15.105Z,16.97
2018-07-16T03:42:15.092Z,16.94
2018-07-16T03:43:15.086Z,16.92
2018-07-16T03:44:15.052Z,16.92
2018-07-16T03:45:15.054Z,16.90
2018-07-16T03:46:15.024Z,16.90
2018-07-16T03:47:15.006Z,16.82
2018-07-16T03:48:14.987Z,16.90
2018-07-16T03:49:14.967Z,16.83
2018-07-16T03:50:14.950Z,16.83
2018-07-16T03:51:14.933Z,16.82
2018-07-16T03:52:14.919Z,16.80
2018-07-16T03:53:14.902Z,16.87
2018-07-16T03:54:14.882Z,16.83
2018-07-16T03:55:14.870Z,16.84
2018-07-16T03:56:14.848Z,16.77
2018-07-16T03:57:14.836Z,16.84
2018-07-16T03:58:14.830Z,16.76
2018-07-16T03:59:14.794Z,16.87
2018-07-16T04:00:14.790Z,16.82
2018-07-16T04:01:14.765Z,16.84
2018-07-16T04:02:14.741Z,16.87
2018-07-16T04:03:14.727Z,16.82
2018-07-16T04:04:14.704Z,16.82
2018-07-16T04:05:14.694Z,16.82
2018-07-16T04:06:14.674Z,16.84
2018-07-16T04:07:14.658Z,16.91
2018-07-16T04:08:14.641Z,16.90
2018-07-16T04:09:14.618Z,16.83
2018-07-16T04:10:14.606Z,16.79
2018-07-16T04:11:14.589Z,16.88
2018-07-16T04:12:14.570Z,16.87
2018-07-16T04:13:14.548Z,16.77
2018-07-16T04:14:14.535Z,16.90
2018-07-16T04:15:14.543Z,16.88
2018-07-16T04:16:14.500Z,16.80
2018-07-16T04:17:14.481Z,16.82
2018-07-16T04:18:14.472Z,16.83
2018-07-16T04:19:14.445Z,16.82
2018-07-16T04:20:14.442Z,16.88
2018-07-16T04:21:14.408Z,16.87
2018-07-16T04:22:14.403Z,16.84
2018-07-16T04:23:14.378Z,16.84
2018-07-16T04:24:14.358Z,16.88
2018-07-16T04:25:14.340Z,16.87
2018-07-16T04:26:14.331Z,16.91
2018-07-16T04:27:14.322Z,16.91
2018-07-16T04:28:14.294Z,16.94
2018-07-16T04:29:14.290Z,16.95
2018-07-16T04:30:14.250Z,16.98
2018-07-16T04:31:14.238Z,16.97
2018-07-16T04:32:14.228Z,16.98
2018-07-16T04:33:14.201Z,16.99
2018-07-16T04:34:14.189Z,16.98
2018-07-16T04:35:14.174Z,17.09
2018-07-16T04:36:14.155Z,16.95
2018-07-16T04:37:14.138Z,17.04
2018-07-16T04:38:14.116Z,17.01
2018-07-16T04:39:14.103Z,17.06
2018-07-16T04:40:14.089Z,17.07
2018-07-16T04:41:14.076Z,17.09
2018-07-16T04:42:14.058Z,17.12
2018-07-16T04:43:14.074Z,17.19
2018-07-16T04:44:14.017Z,17.12
2018-07-16T04:45:14.003Z,17.10
2018-07-16T04:46:13.981Z,17.22
2018-07-16T04:47:13.972Z,17.10
2018-07-16T04:48:13.942Z,17.06
2018-07-16T04:49:13.923Z,17.22
2018-07-16T04:50:13.921Z,17.22
2018-07-16T04:51:13.913Z,17.25
2018-07-16T04:52:13.870Z,17.17
2018-07-16T04:53:13.856Z,17.35
2018-07-16T04:54:13.839Z,17.31
2018-07-16T04:55:13.821Z,17.22
2018-07-16T04:56:13.831Z,17.24
2018-07-16T04:57:13.798Z,17.31
2018-07-16T04:58:13.782Z,17.37
2018-07-16T04:59:13.775Z,17.43
2018-07-16T05:00:13.736Z,17.39
2018-07-16T05:01:13.737Z,17.41
2018-07-16T05:02:13.704Z,17.46
2018-07-16T05:03:13.730Z,17.46
2018-07-16T05:04:13.670Z,17.54
2018-07-16T05:05:13.664Z,17.57
2018-07-16T05:06:13.636Z,17.57
2018-07-16T05:07:13.619Z,17.68
2018-07-16T05:08:13.627Z,17.56
2018-07-16T05:09:13.592Z,17.66
2018-07-16T05:10:13.559Z,17.65
2018-07-16T05:11:13.559Z,17.72
2018-07-16T05:12:13.529Z,17.72
2018-07-16T05:13:13.520Z,17.76
2018-07-16T05:14:13.496Z,17.72
2018-07-16T05:15:13.473Z,17.78
2018-07-16T05:16:13.484Z,17.76
2018-07-16T05:17:13.443Z,17.72
2018-07-16T05:18:13.444Z,17.86
2018-07-16T05:19:13.422Z,17.87
2018-07-16T05:20:13.399Z,17.91
2018-07-16T05:21:13.377Z,17.90
2018-07-16T05:22:13.360Z,17.96
2018-07-16T05:23:13.584Z,18.06
2018-07-16T05:24:13.322Z,18.02
2018-07-16T05:25:13.306Z,17.96
2018-07-16T05:26:13.300Z,18.01
2018-07-16T05:27:13.272Z,17.97
2018-07-16T05:28:13.257Z,18.05
2018-07-16T05:29:13.239Z,18.06
2018-07-16T05:30:13.251Z,18.08
2018-07-16T05:31:13.220Z,18.12
2018-07-16T05:32:13.274Z,18.15
2018-07-16T05:33:13.193Z,18.20
2018-07-16T05:34:13.152Z,18.20
2018-07-16T05:35:13.141Z,18.26
2018-07-16T05:36:13.138Z,18.24
2018-07-16T05:37:13.134Z,18.24
2018-07-16T05:38:13.158Z,18.39
2018-07-16T05:39:13.078Z,18.41
2018-07-16T05:40:13.053Z,18.42
2018-07-16T05:41:13.043Z,18.42
2018-07-16T05:42:13.021Z,18.46
2018-07-16T05:43:13.044Z,18.41
2018-07-16T05:44:13.016Z,18.49
2018-07-16T05:45:12.970Z,18.56
2018-07-16T05:46:12.951Z,18.61
2018-07-16T05:47:12.949Z,18.66
2018-07-16T05:48:12.925Z,18.63
2018-07-16T05:49:12.915Z,18.74
2018-07-16T05:50:12.884Z,18.70
2018-07-16T05:51:12.897Z,18.78
2018-07-16T05:52:12.855Z,18.85
2018-07-16T05:53:12.858Z,18.86
2018-07-16T05:54:12.830Z,18.94
2018-07-16T05:55:12.813Z,19.08
2018-07-16T05:56:12.785Z,19.17
2018-07-16T05:57:12.768Z,19.19
2018-07-16T05:58:12.823Z,19.19
2018-07-16T05:59:12.759Z,19.45
2018-07-16T06:00:12.725Z,19.52
2018-07-16T06:01:12.706Z,19.64
2018-07-16T06:02:12.701Z,19.79
2018-07-16T06:03:12.718Z,19.93
2018-07-16T06:04:12.665Z,20.07
2018-07-16T06:05:12.650Z,20.23
2018-07-16T06:06:12.637Z,20.30
2018-07-16T06:07:12.628Z,20.37
2018-07-16T06:08:12.652Z,20.58
2018-07-16T06:09:12.594Z,20.73
2018-07-16T06:10:12.588Z,20.82
2018-07-16T06:11:12.582Z,20.95
2018-07-16T06:12:12.562Z,21.05
2018-07-16T06:13:12.545Z,21.10
2018-07-16T06:14:12.541Z,21.28
2018-07-16T06:15:12.524Z,21.43
2018-07-16T06:16:12.534Z,21.32
2018-07-16T06:17:12.501Z,21.48
2018-07-16T06:18:12.494Z,21.58
2018-07-16T06:19:12.510Z,21.51
2018-07-16T06:20:12.513Z,21.69
2018-07-16T06:21:12.461Z,21.69
2018-07-16T06:22:12.486Z,21.74
2018-07-16T06:23:12.442Z,21.78
2018-07-16T06:24:12.433Z,21.94
2018-07-16T06:25:12.420Z,22.11
2018-07-16T06:26:12.422Z,22.06
2018-07-16T06:27:12.396Z,22.19
2018-07-16T06:28:12.396Z,22.19
2018-07-16T06:29:12.386Z,22.34
2018-07-16T06:30:12.373Z,22.43
2018-07-16T06:31:12.369Z,22.34
2018-07-16T06:32:12.354Z,22.40
2018-07-16T06:33:12.350Z,22.49
2018-07-16T06:34:12.340Z,22.59
2018-07-16T06:35:12.345Z,22.74
2018-07-16T06:36:12.315Z,22.73
2018-07-16T06:37:12.313Z,22.80
2018-07-16T06:38:12.309Z,22.78
2018-07-16T06:39:12.308Z,22.71
2018-07-16T06:40:12.372Z,22.81
2018-07-16T06:41:12.651Z,22.74
2018-07-16T06:42:12.309Z,22.78
2018-07-16T06:43:12.263Z,22.92
2018-07-16T06:44:12.294Z,23.01
2018-07-16T06:45:12.283Z,23.18
2018-07-16T06:46:12.259Z,23.42
2018-07-16T06:47:12.239Z,23.56
2018-07-16T06:48:12.234Z,23.71
2018-07-16T06:49:12.236Z,23.85
2018-07-16T06:50:12.222Z,23.97
2018-07-16T06:51:12.215Z,23.97
2018-07-16T06:52:12.204Z,23.89
2018-07-16T06:53:12.201Z,23.78
2018-07-16T06:54:12.200Z,23.67
2018-07-16T06:55:12.244Z,23.73
2018-07-16T06:56:12.178Z,23.88
2018-07-16T06:57:12.176Z,23.86
2018-07-16T06:58:12.166Z,23.97
2018-07-16T06:59:12.166Z,23.97
2018-07-16T07:00:12.163Z,23.97
2018-07-16T07:01:12.179Z,23.97
2018-07-16T07:02:12.174Z,24.01
2018-07-16T07:03:12.145Z,24.22
2018-07-16T07:04:12.144Z,24.22
2018-07-16T07:05:12.140Z,24.21
2018-07-16T07:06:12.132Z,24.15
2018-07-16T07:07:12.124Z,24.06
2018-07-16T07:08:12.112Z,24.03
2018-07-16T07:09:12.111Z,24.15
2018-07-16T07:10:12.121Z,24.16
2018-07-16T07:11:12.124Z,24.07
2018-07-16T07:12:12.100Z,24.19
2018-07-16T07:13:12.102Z,24.16
2018-07-16T07:14:12.095Z,24.26
2018-07-16T07:15:12.085Z,24.36
2018-07-16T07:16:12.079Z,24.44
2018-07-16T07:17:12.077Z,24.44
2018-07-16T07:18:12.137Z,24.48
2018-07-16T07:19:12.098Z,24.53
2018-07-16T07:20:12.076Z,24.40
2018-07-16T07:21:12.068Z,24.26
2018-07-16T07:22:12.054Z,24.23
2018-07-16T07:23:12.058Z,24.26
2018-07-16T07:24:12.048Z,24.37
2018-07-16T07:25:12.041Z,24.47
2018-07-16T07:26:12.047Z,24.34
2018-07-16T07:27:12.036Z,24.29
2018-07-16T07:28:12.027Z,24.37
2018-07-16T07:29:12.026Z,24.41
2018-07-16T07:30:12.020Z,24.48
2018-07-16T07:31:12.040Z,24.56
2018-07-16T07:32:12.013Z,24.74
2018-07-16T07:33:12.043Z,24.81
2018-07-16T07:34:12.026Z,24.89
2018-07-16T07:35:12.087Z,24.99
2018-07-16T07:36:12.006Z,24.96
2018-07-16T07:37:11.983Z,25.08
2018-07-16T07:38:11.971Z,25.11
2018-07-16T07:39:11.982Z,25.11
2018-07-16T07:40:11.970Z,25.14
2018-07-16T07:41:11.972Z,25.15
2018-07-16T07:42:11.951Z,25.18
2018-07-16T07:43:11.966Z,25.15
2018-07-16T07:44:11.959Z,25.15
2018-07-16T07:45:11.951Z,25.14
2018-07-16T07:46:11.962Z,25.12
2018-07-16T07:47:11.947Z,25.15
2018-07-16T07:48:11.918Z,25.18
2018-07-16T07:49:11.890Z,25.22
2018-07-16T07:50:11.886Z,25.16
2018-07-16T07:51:11.883Z,25.23
2018-07-16T07:52:11.867Z,25.34
2018-07-16T07:53:11.874Z,25.41
2018-07-16T07:54:12.029Z,25.43
2018-07-16T07:55:12.267Z,25.26
2018-07-16T07:56:11.839Z,25.11
2018-07-16T07:57:11.829Z,25.19
2018-07-16T07:58:11.852Z,25.23
2018-07-16T07:59:11.819Z,25.38
2018-07-16T08:00:11.828Z,25.43
2018-07-16T08:01:11.810Z,25.41
2018-07-16T08:02:11.799Z,25.37
2018-07-16T08:03:11.790Z,25.49
2018-07-16T08:04:11.768Z,25.49
2018-07-16T08:05:11.762Z,25.43
2018-07-16T08:06:11.746Z,25.48
2018-07-16T08:07:11.748Z,25.56
2018-07-16T08:08:11.779Z,25.55
2018-07-16T08:09:11.718Z,25.55
2018-07-16T08:10:11.746Z,25.64
2018-07-16T08:11:11.730Z,25.59
2018-07-16T08:12:11.691Z,25.53
2018-07-16T08:13:11.679Z,25.51
2018-07-16T08:14:11.699Z,25.58
2018-07-16T08:15:11.691Z,25.67
2018-07-16T08:16:11.653Z,25.59
2018-07-16T08:17:11.644Z,25.67
2018-07-16T08:18:11.642Z,25.70
2018-07-16T08:19:11.692Z,25.81
2018-07-16T08:20:11.633Z,25.82
2018-07-16T08:21:11.621Z,25.90
2018-07-16T08:22:11.617Z,25.93
2018-07-16T08:23:11.602Z,26.05
2018-07-16T08:24:11.574Z,26.03
2018-07-16T08:25:11.601Z,26.00
2018-07-16T08:26:11.552Z,25.98
2018-07-16T08:27:11.552Z,26.10
2018-07-16T08:28:11.599Z,26.07
2018-07-16T08:29:11.526Z,26.08
2018-07-16T08:30:11.512Z,26.26
2018-07-16T08:31:11.507Z,26.16
2018-07-16T08:32:11.491Z,26.01
2018-07-16T08:33:11.498Z,25.86
2018-07-16T08:34:11.511Z,25.83
2018-07-16T08:35:11.485Z,25.68
2018-07-16T08:36:11.455Z,25.63
2018-07-16T08:37:11.457Z,25.48
2018-07-16T08:38:11.525Z,25.52
2018-07-16T08:39:11.445Z,25.63
2018-07-16T08:40:11.421Z,25.81
2018-07-16T08:41:11.420Z,25.85
2018-07-16T08:42:11.442Z,25.98
2018-07-16T08:43:11.439Z,26.04
2018-07-16T08:44:11.460Z,25.98
2018-07-16T08:45:11.366Z,25.81
2018-07-16T08:46:11.376Z,25.75
2018-07-16T08:47:11.651Z,25.89
2018-07-16T08:48:11.361Z,25.95
2018-07-16T08:49:11.362Z,26.04
2018-07-16T08:50:11.360Z,26.03
2018-07-16T08:51:11.332Z,26.16
2018-07-16T08:52:11.314Z,26.10
2018-07-16T08:53:11.294Z,26.15
2018-07-16T08:54:11.311Z,26.10
2018-07-16T08:55:11.277Z,26.28
2018-07-16T08:56:11.259Z,26.27
2018-07-16T08:57:11.255Z,26.26
2018-07-16T08:58:11.495Z,26.23
2018-07-16T08:59:11.271Z,26.30
2018-07-16T09:00:11.223Z,26.36
2018-07-16T09:01:11.209Z,26.43
2018-07-16T09:02:11.197Z,26.56
2018-07-16T09:03:11.259Z,26.64
2018-07-16T09:04:11.322Z,26.70
2018-07-16T09:05:11.241Z,26.78
2018-07-16T09:06:11.284Z,26.85
2018-07-16T09:07:11.180Z,26.83
2018-07-16T09:08:11.141Z,26.79
2018-07-16T09:09:11.132Z,26.85
2018-07-16T09:10:11.260Z,26.98
2018-07-16T09:11:11.676Z,26.88
2018-07-16T09:12:11.124Z,26.30
2018-07-16T09:13:11.341Z,26.10
2018-07-16T09:14:11.107Z,26.08
2018-07-16T09:15:11.068Z,26.30
2018-07-16T09:16:11.060Z,26.36
2018-07-16T09:17:11.054Z,26.46
2018-07-16T09:18:11.043Z,26.57
2018-07-16T09:19:11.056Z,26.65
2018-07-16T09:20:11.021Z,26.85
2018-07-16T09:21:11.020Z,26.86
2018-07-16T09:22:11.000Z,26.98
2018-07-16T09:23:11.118Z,26.97
2018-07-16T09:24:10.984Z,27.03
2018-07-16T09:25:10.972Z,27.05
2018-07-16T09:26:10.963Z,27.13
2018-07-16T09:27:10.953Z,27.04
2018-07-16T09:28:10.950Z,27.12
2018-07-16T09:29:10.932Z,27.10
2018-07-16T09:30:10.962Z,27.03
2018-07-16T09:31:10.912Z,27.16
2018-07-16T09:32:10.917Z,27.13
2018-07-16T09:33:10.906Z,27.08
2018-07-16T09:34:10.886Z,27.01
2018-07-16T09:35:10.872Z,26.90
2018-07-16T09:36:10.866Z,26.83
2018-07-16T09:37:10.854Z,26.75
2018-07-16T09:38:10.847Z,26.75
2018-07-16T09:39:10.879Z,26.83
2018-07-16T09:40:10.851Z,26.85
2018-07-16T09:41:10.823Z,26.97
2018-07-16T09:42:10.905Z,27.07
2018-07-16T09:43:10.857Z,27.12
2018-07-16T09:44:10.786Z,27.23
2018-07-16T09:45:10.778Z,27.34
2018-07-16T09:46:10.769Z,27.27
2018-07-16T09:47:10.767Z,27.42
2018-07-16T09:48:10.750Z,27.44
2018-07-16T09:49:10.737Z,27.49
2018-07-16T09:50:10.729Z,27.58
2018-07-16T09:51:10.955Z,27.61
2018-07-16T09:52:10.752Z,27.54
2018-07-16T09:53:10.710Z,27.70
2018-07-16T09:54:10.714Z,27.70
2018-07-16T09:55:10.679Z,27.79
2018-07-16T09:56:10.752Z,27.93
2018-07-16T09:57:10.842Z,27.85
2018-07-16T09:58:10.766Z,27.82
2018-07-16T09:59:10.677Z,27.79
2018-07-16T10:00:10.710Z,27.73
2018-07-16T10:01:10.630Z,27.70
2018-07-16T10:02:10.621Z,27.72
2018-07-16T10:03:10.609Z,27.61
2018-07-16T10:04:10.615Z,27.44
2018-07-16T10:05:10.605Z,27.34
2018-07-16T10:06:10.643Z,27.26
2018-07-16T10:07:10.583Z,27.37
2018-07-16T10:08:10.626Z,27.35
2018-07-16T10:09:10.558Z,27.38
2018-07-16T10:10:10.548Z,27.52
2018-07-16T10:11:10.539Z,27.61
2018-07-16T10:12:10.525Z,27.73
2018-07-16T10:13:10.534Z,27.91
2018-07-16T10:14:10.500Z,27.91
2018-07-16T10:15:10.496Z,27.94
2018-07-16T10:16:10.496Z,28.03
2018-07-16T10:17:10.513Z,28.03
2018-07-16T10:18:10.489Z,28.06
2018-07-16T10:19:10.484Z,28.16
2018-07-16T10:20:10.531Z,28.22
2018-07-16T10:21:10.440Z,28.34
2018-07-16T10:22:10.428Z,28.30
2018-07-16T10:23:10.449Z,28.19
2018-07-16T10:24:10.428Z,28.24
2018-07-16T10:25:10.404Z,28.15
2018-07-16T10:26:10.590Z,28.12
2018-07-16T10:27:10.813Z,28.30
2018-07-16T10:28:10.379Z,28.34
2018-07-16T10:29:10.402Z,28.49
2018-07-16T10:30:10.361Z,28.53
2018-07-16T10:31:10.602Z,28.54
2018-07-16T10:32:10.349Z,28.61
2018-07-16T10:33:10.332Z,28.64
2018-07-16T10:34:10.322Z,28.62
2018-07-16T10:35:10.314Z,28.65
2018-07-16T10:36:10.328Z,28.66
2018-07-16T10:37:10.298Z,28.65
2018-07-16T10:38:10.291Z,28.68
2018-07-16T10:39:10.289Z,28.64
2018-07-16T10:40:10.268Z,28.61
2018-07-16T10:41:10.354Z,28.66
2018-07-16T10:42:10.261Z,28.72
2018-07-16T10:43:10.245Z,28.72
2018-07-16T10:44:10.321Z,28.81
2018-07-16T10:45:10.241Z,28.93
2018-07-16T10:46:10.223Z,28.93
2018-07-16T10:47:10.214Z,28.72
2018-07-16T10:48:10.199Z,28.61
2018-07-16T10:49:10.218Z,28.38
2018-07-16T10:50:10.425Z,28.27
2018-07-16T10:51:10.187Z,28.44
2018-07-16T10:52:10.160Z,28.53
2018-07-16T10:53:10.327Z,28.57
2018-07-16T10:54:10.262Z,28.66
2018-07-16T10:55:10.149Z,28.75
2018-07-16T10:56:10.134Z,28.72
2018-07-16T10:57:10.126Z,28.86
2018-07-16T10:58:10.230Z,28.90
2018-07-16T10:59:10.105Z,28.94
2018-07-16T11:00:10.120Z,29.10
2018-07-16T11:01:10.093Z,29.10
2018-07-16T11:02:10.191Z,29.02
2018-07-16T11:03:10.140Z,28.94
2018-07-16T11:04:10.064Z,29.06
2018-07-16T11:05:10.113Z,28.94
2018-07-16T11:06:10.050Z,28.91
2018-07-16T11:07:10.034Z,29.04
2018-07-16T11:08:10.023Z,29.07
2018-07-16T11:09:10.016Z,29.18
2018-07-16T11:10:10.015Z,29.21
2018-07-16T11:11:10.013Z,29.29
2018-07-16T11:12:10.046Z,29.40
2018-07-16T11:13:10.042Z,29.47
2018-07-16T11:14:10.030Z,29.55
2018-07-16T11:15:10.086Z,29.61
2018-07-16T11:16:09.958Z,29.47
2018-07-16T11:17:09.961Z,29.39
2018-07-16T11:18:09.942Z,29.46
2018-07-16T11:19:10.008Z,29.43
2018-07-16T11:20:09.921Z,29.36
2018-07-16T11:21:09.917Z,29.29
2018-07-16T11:22:09.910Z,29.33
2018-07-16T11:23:09.896Z,29.22
2018-07-16T11:24:09.893Z,29.25
2018-07-16T11:25:09.884Z,29.25
2018-07-16T11:26:09.870Z,29.17
2018-07-16T11:27:10.790Z,29.13
2018-07-16T11:28:09.875Z,29.22
2018-07-16T11:29:09.844Z,29.21
2018-07-16T11:30:09.896Z,29.25
2018-07-16T11:31:09.850Z,29.39
2018-07-16T11:32:09.822Z,29.41
2018-07-16T11:33:09.835Z,29.44
2018-07-16T11:34:09.806Z,29.49
2018-07-16T11:35:09.799Z,29.49
2018-07-16T11:36:09.788Z,29.49
2018-07-16T11:37:09.776Z,29.31
2018-07-16T11:38:09.782Z,29.27
2018-07-16T11:39:09.794Z,29.15
2018-07-16T11:40:09.760Z,29.21
2018-07-16T11:41:09.749Z,29.22
2018-07-16T11:42:09.739Z,29.19
2018-07-16T11:43:09.732Z,29.33
2018-07-16T11:44:09.725Z,29.39
2018-07-16T11:45:09.715Z,29.47
2018-07-16T11:46:09.787Z,29.47
2018-07-16T11:47:09.718Z,29.58
2018-07-16T11:48:09.687Z,29.71
2018-07-16T11:49:09.704Z,29.73
2018-07-16T11:50:09.672Z,29.92
2018-07-16T11:51:09.908Z,29.91
2018-07-16T11:52:09.706Z,30.13
2018-07-16T11:53:09.647Z,30.08
2018-07-16T11:54:09.635Z,30.11
2018-07-16T11:55:09.630Z,30.18
2018-07-16T11:56:09.621Z,30.20
2018-07-16T11:57:09.610Z,30.13
2018-07-16T11:58:09.617Z,30.13
2018-07-16T11:59:09.689Z,30.10
2018-07-16T12:00:09.584Z,30.10
2018-07-16T12:01:09.690Z,30.13
2018-07-16T12:02:09.570Z,29.89
2018-07-16T12:03:09.625Z,29.81
2018-07-16T12:04:09.557Z,29.93
2018-07-16T12:05:09.585Z,29.98
2018-07-16T12:06:09.554Z,30.10
2018-07-16T12:07:09.534Z,30.10
2018-07-16T12:08:09.553Z,30.20
2018-07-16T12:09:09.519Z,30.33
2018-07-16T12:10:09.510Z,30.35
2018-07-16T12:11:09.500Z,30.29
2018-07-16T12:12:09.492Z,30.30
2018-07-16T12:13:09.490Z,30.24
2018-07-16T12:14:09.483Z,30.22
2018-07-16T12:15:09.472Z,30.45
2018-07-16T12:16:09.466Z,30.53
2018-07-16T12:17:09.563Z,30.60
2018-07-16T12:18:09.440Z,30.75
2018-07-16T12:19:09.438Z,30.86
2018-07-16T12:20:09.427Z,30.96
2018-07-16T12:21:09.421Z,31.05
2018-07-16T12:22:09.413Z,31.15
2018-07-16T12:23:09.411Z,31.11
2018-07-16T12:24:09.397Z,31.08
2018-07-16T12:25:09.381Z,31.08
2018-07-16T12:26:09.385Z,31.04
2018-07-16T12:27:09.376Z,31.14
2018-07-16T12:28:09.370Z,31.22
2018-07-16T12:29:09.359Z,31.19
2018-07-16T12:30:09.349Z,30.97
2018-07-16T12:31:09.339Z,30.83
2018-07-16T12:32:09.354Z,30.85
2018-07-16T12:33:09.324Z,30.92
2018-07-16T12:34:09.346Z,30.95
2018-07-16T12:35:09.342Z,30.95
2018-07-16T12:36:09.300Z,30.95
2018-07-16T12:37:09.299Z,30.99
2018-07-16T12:38:09.289Z,31.07
2018-07-16T12:39:09.279Z,31.10
2018-07-16T12:40:09.276Z,31.19
2018-07-16T12:41:09.265Z,31.24
2018-07-16T12:42:09.260Z,31.33
2018-07-16T12:43:09.245Z,31.44
2018-07-16T12:44:09.241Z,31.38
2018-07-16T12:45:09.247Z,31.42
2018-07-16T12:46:09.237Z,31.38
2018-07-16T12:47:09.229Z,31.07
2018-07-16T12:48:09.227Z,31.11
2018-07-16T12:49:09.224Z,31.17
2018-07-16T12:50:09.246Z,31.39
2018-07-16T12:51:09.192Z,31.30
2018-07-16T12:52:09.202Z,31.29